Terminal Aerodrome Forecast
Issued by NWS

Home | Current Version | Previous Version | Text Only | Print | Product List | Glossary On
Versions: 1 2 3 4 5 6 7 8 9 10 11 12 13 14 15 16 17 18 19 20
000
FTUS44 KCRP 260125 AAA
TAFALI
TAF AMD
KALI 260125Z 2601/2624 13012G19KT P6SM SCT025 BKN035
     FM260300 14010KT P6SM VCTS BKN025CB
      TEMPO 2605/2609 5SM -TSRA BR BKN015CB OVC100
     FM261100 13007KT P6SM OVC011
     FM261600 14010KT P6SM BKN025 OVC150
     FM262000 14014G20KT P6SM VCTS BKN040CB OVC150=

USA.gov is the U.S. government's official web portal to all federal, state and local government web resources and services.